sensor_id;sensor_type;location;lat;lon;timestamp;pressure;altitude;pressure_sealevel;temperature;humidity
71145;BME280;58812;47.698;17.726;2022-09-28T00:01:55;99048.53;;;8.58;100.00
71145;BME280;58812;47.698;17.726;2022-09-28T00:04:20;99054.50;;;8.52;100.00
71145;BME280;58812;47.698;17.726;2022-09-28T00:06:46;99051.84;;;8.52;100.00
71145;BME280;58812;47.698;17.726;2022-09-28T00:09:13;99049.88;;;8.54;100.00
71145;BME280;58812;47.698;17.726;2022-09-28T00:11:39;99058.88;;;8.61;100.00
71145;BME280;58812;47.698;17.726;2022-09-28T00:14:05;99059.84;;;8.52;100.00
71145;BME280;58812;47.698;17.726;2022-09-28T00:16:40;99059.28;;;8.32;100.00
71145;BME280;58812;47.698;17.726;2022-09-28T00:19:06;99063.22;;;8.54;100.00
71145;BME280;58812;47.698;17.726;2022-09-28T00:21:34;99059.22;;;8.66;100.00
71145;BME280;58812;47.698;17.726;2022-09-28T00:24:02;99056.44;;;8.34;100.00
71145;BME280;58812;47.698;17.726;2022-09-28T00:26:39;99056.81;;;8.39;100.00
71145;BME280;58812;47.698;17.726;2022-09-28T00:29:06;99049.53;;;8.49;100.00
71145;BME280;58812;47.698;17.726;2022-09-28T00:31:33;99052.53;;;8.54;100.00
71145;BME280;58812;47.698;17.726;2022-09-28T00:34:00;99051.03;;;8.60;100.00
71145;BME280;58812;47.698;17.726;2022-09-28T00:36:27;99053.38;;;8.54;100.00
71145;BME280;58812;47.698;17.726;2022-09-28T00:38:54;99052.19;;;8.57;100.00
71145;BME280;58812;47.698;17.726;2022-09-28T00:41:21;99041.53;;;8.57;100.00
71145;BME280;58812;47.698;17.726;2022-09-28T00:43:46;99045.22;;;8.72;100.00
71145;BME280;58812;47.698;17.726;2022-09-28T00:46:18;99044.88;;;8.75;100.00
71145;BME280;58812;47.698;17.726;2022-09-28T00:48:57;99037.53;;;8.61;100.00
71145;BME280;58812;47.698;17.726;2022-09-28T00:51:25;99031.22;;;8.62;100.00
71145;BME280;58812;47.698;17.726;2022-09-28T00:53:51;99027.88;;;8.68;100.00
71145;BME280;58812;47.698;17.726;2022-09-28T00:56:19;99033.87;;;8.70;100.00
71145;BME280;58812;47.698;17.726;2022-09-28T00:58:49;99029.06;;;8.66;100.00
71145;BME280;58812;47.698;17.726;2022-09-28T01:01:16;99033.22;;;8.68;100.00
71145;BME280;58812;47.698;17.726;2022-09-28T01:03:41;99029.88;;;8.74;100.00
71145;BME280;58812;47.698;17.726;2022-09-28T01:06:10;99029.38;;;8.87;100.00
71145;BME280;58812;47.698;17.726;2022-09-28T01:08:40;99041.25;;;8.93;100.00
71145;BME280;58812;47.698;17.726;2022-09-28T01:11:05;99031.06;;;8.80;100.00
71145;BME280;58812;47.698;17.726;2022-09-28T01:13:31;99035.03;;;8.76;100.00
71145;BME280;58812;47.698;17.726;2022-09-28T01:16:18;99040.56;;;8.99;100.00
71145;BME280;58812;47.698;17.726;2022-09-28T01:21:51;99037.53;;;8.77;100.00
71145;BME280;58812;47.698;17.726;2022-09-28T01:24:41;99032.56;;;8.82;100.00
71145;BME280;58812;47.698;17.726;2022-09-28T01:27:33;99027.22;;;8.74;100.00
71145;BME280;58812;47.698;17.726;2022-09-28T01:37:59;99022.75;;;9.07;100.00
71145;BME280;58812;47.698;17.726;2022-09-28T01:40:27;99023.22;;;8.95;100.00
71145;BME280;58812;47.698;17.726;2022-09-28T01:43:07;99022.38;;;8.86;100.00
71145;BME280;58812;47.698;17.726;2022-09-28T01:45:48;99027.91;;;8.85;100.00
71145;BME280;58812;47.698;17.726;2022-09-28T01:48:25;99033.25;;;8.85;100.00
71145;BME280;58812;47.698;17.726;2022-09-28T01:50:56;99042.88;;;8.77;100.00
71145;BME280;58812;47.698;17.726;2022-09-28T01:53:33;99036.88;;;8.75;100.00
71145;BME280;58812;47.698;17.726;2022-09-28T01:56:07;99052.91;;;8.75;100.00
71145;BME280;58812;47.698;17.726;2022-09-28T01:58:39;99050.22;;;8.67;100.00
71145;BME280;58812;47.698;17.726;2022-09-28T02:01:12;99047.87;;;8.64;100.00
71145;BME280;58812;47.698;17.726;2022-09-28T02:04:13;99051.53;;;8.63;100.00
71145;BME280;58812;47.698;17.726;2022-09-28T02:06:46;99044.53;;;8.62;100.00
71145;BME280;58812;47.698;17.726;2022-09-28T02:09:18;99051.38;;;8.56;100.00
71145;BME280;58812;47.698;17.726;2022-09-28T02:11:51;99050.34;;;8.49;100.00
71145;BME280;58812;47.698;17.726;2022-09-28T02:14:19;99049.34;;;8.59;100.00
71145;BME280;58812;47.698;17.726;2022-09-28T02:16:50;99042.19;;;8.51;100.00
71145;BME280;58812;47.698;17.726;2022-09-28T02:19:20;99049.53;;;8.49;100.00
71145;BME280;58812;47.698;17.726;2022-09-28T02:22:06;99044.91;;;8.25;100.00
71145;BME280;58812;47.698;17.726;2022-09-28T02:24:54;99056.97;;;7.95;100.00
71145;BME280;58812;47.698;17.726;2022-09-28T02:27:30;99054.00;;;8.06;100.00
71145;BME280;58812;47.698;17.726;2022-09-28T02:29:58;99051.75;;;8.27;100.00
71145;BME280;58812;47.698;17.726;2022-09-28T02:32:24;99053.78;;;8.34;100.00
71145;BME280;58812;47.698;17.726;2022-09-28T02:34:54;99048.34;;;8.43;100.00
71145;BME280;58812;47.698;17.726;2022-09-28T02:37:19;99055.87;;;8.48;100.00
71145;BME280;58812;47.698;17.726;2022-09-28T02:39:45;99045.19;;;8.64;100.00
71145;BME280;58812;47.698;17.726;2022-09-28T02:42:23;99042.22;;;8.75;100.00
71145;BME280;58812;47.698;17.726;2022-09-28T02:45:09;99045.81;;;8.42;100.00
71145;BME280;58812;47.698;17.726;2022-09-28T02:50:15;99033.44;;;8.24;100.00
71145;BME280;58812;47.698;17.726;2022-09-28T02:53:07;99030.75;;;8.24;100.00
71145;BME280;58812;47.698;17.726;2022-09-28T03:09:24;99032.34;;;7.67;100.00
71145;BME280;58812;47.698;17.726;2022-09-28T03:11:57;99036.50;;;7.69;100.00
71145;BME280;58812;47.698;17.726;2022-09-28T03:14:25;99036.69;;;7.76;100.00
71145;BME280;58812;47.698;17.726;2022-09-28T03:16:50;99036.28;;;7.89;100.00
71145;BME280;58812;47.698;17.726;2022-09-28T03:19:19;99042.44;;;7.89;100.00
71145;BME280;58812;47.698;17.726;2022-09-28T03:21:45;99040.63;;;7.90;100.00
71145;BME280;58812;47.698;17.726;2022-09-28T03:24:11;99043.47;;;7.96;100.00
71145;BME280;58812;47.698;17.726;2022-09-28T03:26:37;99036.56;;;8.20;100.00
71145;BME280;58812;47.698;17.726;2022-09-28T03:29:03;99040.63;;;7.98;100.00
71145;BME280;58812;47.698;17.726;2022-09-28T03:31:29;99047.00;;;8.05;100.00
71145;BME280;58812;47.698;17.726;2022-09-28T03:33:54;99048.09;;;7.94;100.00
71145;BME280;58812;47.698;17.726;2022-09-28T03:36:20;99047.22;;;7.78;100.00
71145;BME280;58812;47.698;17.726;2022-09-28T03:38:45;99046.59;;;7.92;100.00
71145;BME280;58812;47.698;17.726;2022-09-28T03:41:11;99050.25;;;7.83;100.00
71145;BME280;58812;47.698;17.726;2022-09-28T03:43:36;99048.59;;;7.90;100.00
71145;BME280;58812;47.698;17.726;2022-09-28T03:46:01;99049.88;;;7.78;100.00
71145;BME280;58812;47.698;17.726;2022-09-28T03:48:29;99047.59;;;7.91;100.00
71145;BME280;58812;47.698;17.726;2022-09-28T03:50:56;99051.00;;;8.01;100.00
71145;BME280;58812;47.698;17.726;2022-09-28T03:53:23;99037.50;;;8.45;100.00
71145;BME280;58812;47.698;17.726;2022-09-28T03:55:49;99031.19;;;8.54;100.00
71145;BME280;58812;47.698;17.726;2022-09-28T03:58:16;99034.47;;;8.40;100.00
71145;BME280;58812;47.698;17.726;2022-09-28T04:00:41;99032.91;;;8.21;100.00
71145;BME280;58812;47.698;17.726;2022-09-28T04:03:07;99031.06;;;8.21;100.00
71145;BME280;58812;47.698;17.726;2022-09-28T04:05:33;99020.50;;;8.46;100.00
71145;BME280;58812;47.698;17.726;2022-09-28T04:07:58;99030.81;;;8.41;100.00
71145;BME280;58812;47.698;17.726;2022-09-28T04:10:24;99026.94;;;8.35;100.00
71145;BME280;58812;47.698;17.726;2022-09-28T04:12:57;99022.16;;;8.39;100.00
71145;BME280;58812;47.698;17.726;2022-09-28T04:15:23;99021.53;;;8.11;100.00
71145;BME280;58812;47.698;17.726;2022-09-28T04:17:49;99011.59;;;7.79;100.00
71145;BME280;58812;47.698;17.726;2022-09-28T04:20:14;99001.97;;;7.94;100.00
71145;BME280;58812;47.698;17.726;2022-09-28T04:22:40;99007.19;;;8.12;100.00
71145;BME280;58812;47.698;17.726;2022-09-28T04:25:06;99003.69;;;8.03;100.00
71145;BME280;58812;47.698;17.726;2022-09-28T04:27:31;99003.41;;;8.14;100.00
71145;BME280;58812;47.698;17.726;2022-09-28T04:30:16;99005.19;;;8.06;100.00
71145;BME280;58812;47.698;17.726;2022-09-28T04:32:41;99000.66;;;7.90;100.00
71145;BME280;58812;47.698;17.726;2022-09-28T04:35:08;99003.66;;;7.95;100.00
71145;BME280;58812;47.698;17.726;2022-09-28T04:37:35;99005.00;;;7.99;100.00
71145;BME280;58812;47.698;17.726;2022-09-28T04:40:01;99003.97;;;7.92;100.00
71145;BME280;58812;47.698;17.726;2022-09-28T04:42:26;99013.28;;;7.88;100.00
71145;BME280;58812;47.698;17.726;2022-09-28T04:44:51;99013.28;;;7.88;100.00
71145;BME280;58812;47.698;17.726;2022-09-28T04:47:17;99017.00;;;7.95;100.00
71145;BME280;58812;47.698;17.726;2022-09-28T04:49:42;99018.06;;;8.18;100.00
71145;BME280;58812;47.698;17.726;2022-09-28T04:52:08;99018.31;;;8.41;100.00
71145;BME280;58812;47.698;17.726;2022-09-28T04:54:33;99022.47;;;8.36;100.00
71145;BME280;58812;47.698;17.726;2022-09-28T04:56:59;99022.72;;;8.16;100.00
71145;BME280;58812;47.698;17.726;2022-09-28T04:59:25;99027.34;;;8.06;100.00
71145;BME280;58812;47.698;17.726;2022-09-28T05:01:50;99017.03;;;8.11;100.00
71145;BME280;58812;47.698;17.726;2022-09-28T05:04:17;99018.16;;;8.43;100.00
71145;BME280;58812;47.698;17.726;2022-09-28T05:06:43;99018.03;;;8.10;100.00
71145;BME280;58812;47.698;17.726;2022-09-28T05:09:08;99006.16;;;8.39;100.00
71145;BME280;58812;47.698;17.726;2022-09-28T05:11:34;99009.75;;;8.21;100.00
71145;BME280;58812;47.698;17.726;2022-09-28T05:13:59;99008.53;;;8.08;100.00
71145;BME280;58812;47.698;17.726;2022-09-28T05:16:25;99005.75;;;8.25;100.00
71145;BME280;58812;47.698;17.726;2022-09-28T05:18:55;99006.72;;;8.16;100.00
71145;BME280;58812;47.698;17.726;2022-09-28T05:21:20;99006.38;;;8.11;100.00
71145;BME280;58812;47.698;17.726;2022-09-28T05:23:49;99016.78;;;8.30;100.00
71145;BME280;58812;47.698;17.726;2022-09-28T05:26:14;99008.25;;;8.27;100.00
71145;BME280;58812;47.698;17.726;2022-09-28T05:28:39;99011.94;;;8.26;100.00
71145;BME280;58812;47.698;17.726;2022-09-28T05:31:06;99008.44;;;8.25;100.00
71145;BME280;58812;47.698;17.726;2022-09-28T05:33:32;99005.06;;;8.23;100.00
71145;BME280;58812;47.698;17.726;2022-09-28T05:35:58;99003.09;;;8.34;100.00
71145;BME280;58812;47.698;17.726;2022-09-28T05:38:23;98996.50;;;8.38;100.00
71145;BME280;58812;47.698;17.726;2022-09-28T05:40:49;98990.06;;;8.22;100.00
71145;BME280;58812;47.698;17.726;2022-09-28T05:43:15;98991.25;;;8.20;100.00
71145;BME280;58812;47.698;17.726;2022-09-28T05:45:40;98992.09;;;8.28;100.00
71145;BME280;58812;47.698;17.726;2022-09-28T05:48:05;98984.81;;;8.39;100.00
71145;BME280;58812;47.698;17.726;2022-09-28T05:50:31;98990.13;;;9.45;100.00
71145;BME280;58812;47.698;17.726;2022-09-28T05:53:07;98986.19;;;9.08;100.00
71145;BME280;58812;47.698;17.726;2022-09-28T05:55:33;98985.53;;;9.14;100.00
71145;BME280;58812;47.698;17.726;2022-09-28T05:58:01;98975.81;;;9.29;100.00
71145;BME280;58812;47.698;17.726;2022-09-28T06:00:27;98976.97;;;9.35;100.00
71145;BME280;58812;47.698;17.726;2022-09-28T06:05:22;98971.13;;;10.18;100.00
71145;BME280;58812;47.698;17.726;2022-09-28T06:07:47;98967.28;;;10.52;100.00
71145;BME280;58812;47.698;17.726;2022-09-28T06:10:12;98971.13;;;10.95;100.00
71145;BME280;58812;47.698;17.726;2022-09-28T06:12:38;98970.94;;;11.34;100.00
71145;BME280;58812;47.698;17.726;2022-09-28T06:15:04;98970.78;;;11.13;100.00
71145;BME280;58812;47.698;17.726;2022-09-28T06:17:29;98975.34;;;11.27;99.10
71145;BME280;58812;47.698;17.726;2022-09-28T06:19:54;98968.62;;;11.61;98.78
71145;BME280;58812;47.698;17.726;2022-09-28T06:22:20;98970.81;;;10.90;99.75
71145;BME280;58812;47.698;17.726;2022-09-28T06:24:45;98968.53;;;10.87;100.00
71145;BME280;58812;47.698;17.726;2022-09-28T06:27:10;98973.59;;;11.34;99.20
71145;BME280;58812;47.698;17.726;2022-09-28T06:29:36;98972.41;;;11.37;98.53
71145;BME280;58812;47.698;17.726;2022-09-28T06:32:01;98965.66;;;11.41;98.56
71145;BME280;58812;47.698;17.726;2022-09-28T06:34:27;98973.69;;;12.15;95.40
71145;BME280;58812;47.698;17.726;2022-09-28T06:36:54;98968.91;;;11.95;94.22
71145;BME280;58812;47.698;17.726;2022-09-28T06:39:19;98977.44;;;11.84;94.49
71145;BME280;58812;47.698;17.726;2022-09-28T06:41:45;98974.78;;;12.20;91.65
71145;BME280;58812;47.698;17.726;2022-09-28T06:44:10;98973.88;;;12.49;92.14
71145;BME280;58812;47.698;17.726;2022-09-28T06:46:36;98972.06;;;12.35;91.76
71145;BME280;58812;47.698;17.726;2022-09-28T06:49:03;98973.75;;;13.00;89.76
71145;BME280;58812;47.698;17.726;2022-09-28T06:51:30;98967.97;;;13.03;88.97
71145;BME280;58812;47.698;17.726;2022-09-28T06:53:55;98975.09;;;13.11;89.34
71145;BME280;58812;47.698;17.726;2022-09-28T06:56:21;98972.50;;;13.03;88.24
71145;BME280;58812;47.698;17.726;2022-09-28T06:58:46;98968.84;;;13.60;86.79
71145;BME280;58812;47.698;17.726;2022-09-28T07:01:12;98968.84;;;14.01;85.43
71145;BME280;58812;47.698;17.726;2022-09-28T07:03:37;98969.94;;;14.13;84.83
71145;BME280;58812;47.698;17.726;2022-09-28T07:06:04;98962.94;;;13.78;84.25
71145;BME280;58812;47.698;17.726;2022-09-28T07:08:30;98961.84;;;14.13;81.95
71145;BME280;58812;47.698;17.726;2022-09-28T07:10:55;98958.41;;;13.50;84.47
71145;BME280;58812;47.698;17.726;2022-09-28T07:13:23;98966.34;;;13.58;84.57
71145;BME280;58812;47.698;17.726;2022-09-28T07:15:59;98962.94;;;14.32;82.78
71145;BME280;58812;47.698;17.726;2022-09-28T07:18:25;98951.72;;;14.15;81.98
71145;BME280;58812;47.698;17.726;2022-09-28T07:20:54;98959.19;;;14.20;81.70
71145;BME280;58812;47.698;17.726;2022-09-28T07:23:21;98957.44;;;14.47;81.14
71145;BME280;58812;47.698;17.726;2022-09-28T07:25:46;98949.37;;;15.46;78.21
71145;BME280;58812;47.698;17.726;2022-09-28T07:28:13;98957.06;;;15.10;77.16
71145;BME280;58812;47.698;17.726;2022-09-28T07:30:39;98954.28;;;14.37;77.12
71145;BME280;58812;47.698;17.726;2022-09-28T07:33:06;98956.53;;;14.40;77.02
71145;BME280;58812;47.698;17.726;2022-09-28T07:35:31;98948.78;;;14.72;76.34
71145;BME280;58812;47.698;17.726;2022-09-28T07:38:03;98949.19;;;14.82;76.16
71145;BME280;58812;47.698;17.726;2022-09-28T07:40:30;98935.13;;;15.13;75.67
71145;BME280;58812;47.698;17.726;2022-09-28T07:43:15;98947.91;;;15.57;73.96
71145;BME280;58812;47.698;17.726;2022-09-28T07:45:49;98944.22;;;15.18;72.21
71145;BME280;58812;47.698;17.726;2022-09-28T07:48:15;98955.00;;;14.85;73.32
71145;BME280;58812;47.698;17.726;2022-09-28T07:50:48;98959.56;;;15.05;72.17
71145;BME280;58812;47.698;17.726;2022-09-28T07:53:18;98962.47;;;15.03;71.44
71145;BME280;58812;47.698;17.726;2022-09-28T07:55:52;98963.06;;;15.38;70.16
71145;BME280;58812;47.698;17.726;2022-09-28T07:58:18;98956.25;;;15.36;67.72
71145;BME280;58812;47.698;17.726;2022-09-28T08:00:45;98952.06;;;15.46;66.43
71145;BME280;58812;47.698;17.726;2022-09-28T08:03:18;98948.34;;;15.41;67.24
71145;BME280;58812;47.698;17.726;2022-09-28T08:05:46;98942.66;;;15.82;66.01
71145;BME280;58812;47.698;17.726;2022-09-28T08:08:12;98930.19;;;15.88;65.21
71145;BME280;58812;47.698;17.726;2022-09-28T08:10:37;98930.69;;;15.52;64.51
71145;BME280;58812;47.698;17.726;2022-09-28T08:13:04;98922.81;;;15.50;64.84
71145;BME280;58812;47.698;17.726;2022-09-28T08:15:33;98929.13;;;15.89;65.45
71145;BME280;58812;47.698;17.726;2022-09-28T08:18:05;98926.87;;;15.86;64.00
71145;BME280;58812;47.698;17.726;2022-09-28T08:20:31;98916.59;;;16.14;65.90
71145;BME280;58812;47.698;17.726;2022-09-28T08:23:15;98915.66;;;16.34;64.29
71145;BME280;58812;47.698;17.726;2022-09-28T08:25:48;98914.59;;;16.35;63.13
71145;BME280;58812;47.698;17.726;2022-09-28T08:28:14;98910.03;;;16.35;63.49
71145;BME280;58812;47.698;17.726;2022-09-28T08:30:42;98903.63;;;16.29;64.46
71145;BME280;58812;47.698;17.726;2022-09-28T08:33:10;98905.34;;;15.72;61.83
71145;BME280;58812;47.698;17.726;2022-09-28T08:35:35;98915.53;;;15.64;62.70
71145;BME280;58812;47.698;17.726;2022-09-28T08:38:00;98901.94;;;15.97;62.28
71145;BME280;58812;47.698;17.726;2022-09-28T08:40:28;98900.12;;;16.22;62.72
71145;BME280;58812;47.698;17.726;2022-09-28T08:43:03;98898.25;;;16.23;63.18
71145;BME280;58812;47.698;17.726;2022-09-28T08:45:31;98908.59;;;16.33;61.56
71145;BME280;58812;47.698;17.726;2022-09-28T08:48:04;98899.84;;;15.99;62.24
71145;BME280;58812;47.698;17.726;2022-09-28T08:51:14;98914.44;;;15.85;62.94
71145;BME280;58812;47.698;17.726;2022-09-28T08:56:23;98911.03;;;16.41;61.97
71145;BME280;58812;47.698;17.726;2022-09-28T08:58:57;98913.03;;;16.83;62.13
71145;BME280;58812;47.698;17.726;2022-09-28T09:01:30;98901.81;;;16.87;60.78
71145;BME280;58812;47.698;17.726;2022-09-28T09:03:57;98906.13;;;16.63;59.93
71145;BME280;58812;47.698;17.726;2022-09-28T09:09:24;98916.78;;;16.19;59.64
71145;BME280;58812;47.698;17.726;2022-09-28T09:14:59;98907.91;;;16.44;60.28
71145;BME280;58812;47.698;17.726;2022-09-28T09:22:59;98901.47;;;16.70;58.10
71145;BME280;58812;47.698;17.726;2022-09-28T09:25:40;98902.13;;;16.65;58.83
71145;BME280;58812;47.698;17.726;2022-09-28T09:34:06;98910.25;;;16.65;58.58
71145;BME280;58812;47.698;17.726;2022-09-28T09:47:44;98893.28;;;16.83;55.48
71145;BME280;58812;47.698;17.726;2022-09-28T09:53:13;98886.22;;;17.07;57.13
71145;BME280;58812;47.698;17.726;2022-09-28T09:55:50;98880.81;;;17.07;55.95
71145;BME280;58812;47.698;17.726;2022-09-28T09:58:38;98887.78;;;17.21;55.02
71145;BME280;58812;47.698;17.726;2022-09-28T10:01:13;98889.91;;;17.13;55.67
71145;BME280;58812;47.698;17.726;2022-09-28T10:03:42;98874.50;;;17.56;56.13
71145;BME280;58812;47.698;17.726;2022-09-28T10:06:12;98864.03;;;17.60;54.74
71145;BME280;58812;47.698;17.726;2022-09-28T10:08:43;98871.69;;;17.26;55.48
71145;BME280;58812;47.698;17.726;2022-09-28T10:11:12;98879.09;;;17.13;56.13
71145;BME280;58812;47.698;17.726;2022-09-28T10:13:39;98878.75;;;17.27;56.53
71145;BME280;58812;47.698;17.726;2022-09-28T10:16:06;98868.09;;;17.32;56.62
71145;BME280;58812;47.698;17.726;2022-09-28T10:18:32;98867.03;;;17.52;56.64
71145;BME280;58812;47.698;17.726;2022-09-28T10:20:58;98869.47;;;17.78;54.50
71145;BME280;58812;47.698;17.726;2022-09-28T10:23:35;98856.88;;;17.29;54.41
71145;BME280;58812;47.698;17.726;2022-09-28T10:26:23;98856.50;;;17.25;55.33
71145;BME280;58812;47.698;17.726;2022-09-28T10:28:53;98864.72;;;16.94;56.55
71145;BME280;58812;47.698;17.726;2022-09-28T10:34:05;98860.97;;;17.38;55.34
71145;BME280;58812;47.698;17.726;2022-09-28T10:36:32;98855.09;;;17.78;54.32
71145;BME280;58812;47.698;17.726;2022-09-28T10:39:06;98854.88;;;17.61;54.19
71145;BME280;58812;47.698;17.726;2022-09-28T10:41:49;98847.94;;;17.28;54.02
71145;BME280;58812;47.698;17.726;2022-09-28T10:44:17;98851.41;;;17.72;52.78
71145;BME280;58812;47.698;17.726;2022-09-28T10:46:43;98851.09;;;17.99;53.41
71145;BME280;58812;47.698;17.726;2022-09-28T10:49:15;98837.59;;;17.80;53.24
71145;BME280;58812;47.698;17.726;2022-09-28T10:51:47;98839.53;;;17.92;53.78
71145;BME280;58812;47.698;17.726;2022-09-28T10:54:24;98839.06;;;17.95;54.25
71145;BME280;58812;47.698;17.726;2022-09-28T10:56:52;98837.28;;;17.52;53.35
71145;BME280;58812;47.698;17.726;2022-09-28T10:59:38;98830.38;;;17.56;53.00
71145;BME280;58812;47.698;17.726;2022-09-28T11:02:31;98835.63;;;17.87;53.48
71145;BME280;58812;47.698;17.726;2022-09-28T11:05:00;98831.44;;;17.73;53.10
71145;BME280;58812;47.698;17.726;2022-09-28T11:07:28;98822.75;;;16.91;54.87
71145;BME280;58812;47.698;17.726;2022-09-28T11:09:55;98820.31;;;17.45;52.95
71145;BME280;58812;47.698;17.726;2022-09-28T11:12:24;98815.47;;;17.83;52.43
71145;BME280;58812;47.698;17.726;2022-09-28T11:15:00;98821.50;;;17.49;52.63
71145;BME280;58812;47.698;17.726;2022-09-28T11:17:30;98810.66;;;17.67;52.89
71145;BME280;58812;47.698;17.726;2022-09-28T11:20:20;98804.59;;;17.17;53.89
71145;BME280;58812;47.698;17.726;2022-09-28T11:22:47;98809.44;;;16.90;56.08
71145;BME280;58812;47.698;17.726;2022-09-28T11:30:23;98790.63;;;17.20;53.40
71145;BME280;58812;47.698;17.726;2022-09-28T11:32:51;98798.22;;;17.29;53.17
71145;BME280;58812;47.698;17.726;2022-09-28T11:35:42;98788.63;;;17.63;51.50
71145;BME280;58812;47.698;17.726;2022-09-28T11:41:02;98786.94;;;17.32;51.91
71145;BME280;58812;47.698;17.726;2022-09-28T11:49:00;98782.69;;;17.92;52.62
71145;BME280;58812;47.698;17.726;2022-09-28T11:51:33;98779.41;;;18.13;52.32
71145;BME280;58812;47.698;17.726;2022-09-28T11:56:48;98775.56;;;17.42;52.95
71145;BME280;58812;47.698;17.726;2022-09-28T11:59:36;98779.41;;;17.53;54.01
71145;BME280;58812;47.698;17.726;2022-09-28T12:02:17;98774.28;;;17.63;53.44
71145;BME280;58812;47.698;17.726;2022-09-28T12:07:20;98776.25;;;17.19;55.56
71145;BME280;58812;47.698;17.726;2022-09-28T12:09:59;98773.56;;;17.38;55.75
71145;BME280;58812;47.698;17.726;2022-09-28T12:13:18;98754.22;;;17.52;55.46
71145;BME280;58812;47.698;17.726;2022-09-28T12:15:22;98766.59;;;17.78;54.17
71145;BME280;58812;47.698;17.726;2022-09-28T12:17:55;98769.66;;;18.12;53.41
71145;BME280;58812;47.698;17.726;2022-09-28T12:20:25;98754.62;;;18.39;53.82
71145;BME280;58812;47.698;17.726;2022-09-28T12:23:01;98751.47;;;18.78;52.92
71145;BME280;58812;47.698;17.726;2022-09-28T12:25:33;98747.78;;;18.49;52.29
71145;BME280;58812;47.698;17.726;2022-09-28T12:28:29;98753.41;;;18.24;53.83
71145;BME280;58812;47.698;17.726;2022-09-28T12:31:06;98748.09;;;17.45;55.27
71145;BME280;58812;47.698;17.726;2022-09-28T12:33:33;98751.34;;;17.17;56.27
71145;BME280;58812;47.698;17.726;2022-09-28T12:36:04;98753.59;;;17.20;56.37
71145;BME280;58812;47.698;17.726;2022-09-28T12:41:50;98743.16;;;16.87;57.80
71145;BME280;58812;47.698;17.726;2022-09-28T12:44:55;98745.34;;;16.78;58.14
71145;BME280;58812;47.698;17.726;2022-09-28T12:50:32;98738.94;;;16.73;58.31
71145;BME280;58812;47.698;17.726;2022-09-28T12:56:36;98720.13;;;16.85;57.94
71145;BME280;58812;47.698;17.726;2022-09-28T12:59:21;98717.31;;;17.09;58.24
71145;BME280;58812;47.698;17.726;2022-09-28T13:05:05;98714.84;;;17.08;57.97
71145;BME280;58812;47.698;17.726;2022-09-28T13:10:35;98721.16;;;17.02;58.12
71145;BME280;58812;47.698;17.726;2022-09-28T13:13:25;98722.50;;;17.11;58.57
71145;BME280;58812;47.698;17.726;2022-09-28T13:19:13;98725.84;;;17.25;58.63
71145;BME280;58812;47.698;17.726;2022-09-28T13:21:51;98721.16;;;17.20;58.49
71145;BME280;58812;47.698;17.726;2022-09-28T13:24:26;98714.63;;;17.09;57.70
71145;BME280;58812;47.698;17.726;2022-09-28T13:26:55;98710.56;;;17.49;58.96
71145;BME280;58812;47.698;17.726;2022-09-28T13:29:23;98720.56;;;17.48;57.76
71145;BME280;58812;47.698;17.726;2022-09-28T13:31:53;98704.16;;;17.31;57.45
71145;BME280;58812;47.698;17.726;2022-09-28T13:34:25;98717.56;;;17.56;57.81
71145;BME280;58812;47.698;17.726;2022-09-28T14:01:06;98717.69;;;17.61;60.09
71145;BME280;58812;47.698;17.726;2022-09-28T14:06:05;98717.75;;;17.73;59.74
71145;BME280;58812;47.698;17.726;2022-09-28T14:09:07;98713.25;;;17.49;60.80
71145;BME280;58812;47.698;17.726;2022-09-28T14:16:36;98712.75;;;17.10;61.73
71145;BME280;58812;47.698;17.726;2022-09-28T14:19:08;98709.72;;;17.00;62.27
71145;BME280;58812;47.698;17.726;2022-09-28T14:24:54;98703.97;;;16.96;62.96
71145;BME280;58812;47.698;17.726;2022-09-28T14:32:33;98710.19;;;16.78;63.81
71145;BME280;58812;47.698;17.726;2022-09-28T14:35:03;98709.16;;;16.79;64.69
71145;BME280;58812;47.698;17.726;2022-09-28T14:37:33;98702.84;;;16.86;64.49
71145;BME280;58812;47.698;17.726;2022-09-28T14:40:24;98698.19;;;16.93;64.06
71145;BME280;58812;47.698;17.726;2022-09-28T14:48:55;98710.94;;;17.04;63.61
71145;BME280;58812;47.698;17.726;2022-09-28T15:02:26;98708.09;;;16.99;64.92
71145;BME280;58812;47.698;17.726;2022-09-28T15:07:20;98711.84;;;16.98;66.25
71145;BME280;58812;47.698;17.726;2022-09-28T15:09:47;98713.41;;;16.87;66.55
71145;BME280;58812;47.698;17.726;2022-09-28T15:12:28;98707.94;;;16.75;67.10
71145;BME280;58812;47.698;17.726;2022-09-28T15:15:04;98711.50;;;16.69;67.91
71145;BME280;58812;47.698;17.726;2022-09-28T15:17:37;98700.84;;;16.56;67.36
71145;BME280;58812;47.698;17.726;2022-09-28T15:20:26;98704.59;;;16.55;68.34
71145;BME280;58812;47.698;17.726;2022-09-28T15:22:57;98699.19;;;16.55;68.38
71145;BME280;58812;47.698;17.726;2022-09-28T15:25:28;98698.72;;;16.58;68.27
71145;BME280;58812;47.698;17.726;2022-09-28T15:27:59;98702.56;;;16.50;68.70
71145;BME280;58812;47.698;17.726;2022-09-28T15:30:34;98695.56;;;16.43;68.93
71145;BME280;58812;47.698;17.726;2022-09-28T15:33:02;98704.09;;;16.40;68.93
71145;BME280;58812;47.698;17.726;2022-09-28T15:35:58;98706.22;;;16.38;69.02
71145;BME280;58812;47.698;17.726;2022-09-28T15:38:26;98706.88;;;16.33;69.44
71145;BME280;58812;47.698;17.726;2022-09-28T15:40:52;98701.06;;;16.29;69.43
71145;BME280;58812;47.698;17.726;2022-09-28T15:43:24;98710.22;;;16.28;70.08
71145;BME280;58812;47.698;17.726;2022-09-28T15:46:17;98704.59;;;16.30;70.14
71145;BME280;58812;47.698;17.726;2022-09-28T15:48:53;98705.13;;;16.20;71.03
71145;BME280;58812;47.698;17.726;2022-09-28T15:51:21;98703.47;;;16.19;70.89
71145;BME280;58812;47.698;17.726;2022-09-28T15:53:56;98703.72;;;16.11;72.03